首页
METAR-TAF:

METAR-TAF

机场 :

Fort Chipewyan, 艾伯塔, 加拿大

纬度: 58-46N, 经度: 111-07W, 海拔: 232米

当前天气观测

该预报发布于27分钟前的05:00 UTC
风速8节,风向东转东南
温度 -25°C
湿度 63%
气压 1026 hPa
能見度: 14.5公里
少量云层高于13000英尺

METAR: CYPY 260500Z AUTO 11008KT 9SM FEW130 M25/M30 A3031 RMK SLP295

时间: 22:27 (05:27 UTC)

预报

该预报发布于5小时和49分钟前的23:38 UTC
预报有效从26日的 00点(UTC)到 26日的 07点(UTC)
风速8节,风向东转东南
能見度: 10公里
天空无云

TAF: CYPY 252338Z 2600/2607 11008KT P6SM SKC RMK FCST BASED ON AUTO OBS. NXT FCST WILL BE ISSUED AT 261245Z

超过4000个机场的气象观测和天气预报(METAR&TAF报告)。

可查询的气象台以黄色和红色小点在地图上表示。

将鼠标移到小点上方,可查看气象台名称。

然后点击查看天气观测和预报。

如需切换地图:点击带黑十字的绿色按钮放大地图;点击带横线的绿色按钮缩小地图;或者点击绿色箭头查看邻近地区的地图。


METAR-TAF: